Terminal Aerodrome Forecast
Issued by NWS Charleston, WV

Current Version | Previous Version | Text Only | Print | Product List | Glossary Off
Versions: 1 2 3 4 5 6 7 8 9 10 11 12 13 14 15 16 17 18 19 20 21 22 23

313
FTUS41 KRLX 260908 AAA
TAFPKB
TAF AMD
KPKB 260908Z 2609/2706 26009G15KT P6SM OVC020
     FM261700 27009G18KT P6SM BKN035
     FM262200 27007KT P6SM SCT100
     FM270500 VRB03KT P6SM BKN060=

USA.gov is the U.S. government's official web portal to all federal, state and local government web resources and services.